Time;durP1;ratioP1;P1;durP2;ratioP2;P2;SDS_P1;SDS_P2;PMS_P1;PMS_P2;Temp;Humidity;BMP_temperature;BMP_pressure;BME280_temperature;BME280_humidity;BME280_pressure;Samples;Min_cycle;Max_cycle;Signal;HPM_P1;HPM_P2
2021/07/12 00:00:30;;;;;;;6.65;4.03;;;;;;;15.02;87.08;100636.69;5042905;28;20057;-45
2021/07/12 00:02:57;;;;;;;9.48;3.65;;;;;;;15.02;87.16;100628.34;5043426;28;20049;-44
2021/07/12 00:05:25;;;;;;;6.43;3.97;;;;;;;15.03;87.10;100637.50;5041889;28;20045;-44
2021/07/12 00:07:54;;;;;;;8.82;4.00;;;;;;;15.05;87.06;100635.94;5048705;28;20049;-44
2021/07/12 00:10:24;;;;;;;6.38;3.40;;;;;;;15.02;87.26;100636.69;5048832;28;20143;-44
2021/07/12 00:12:53;;;;;;;5.72;3.60;;;;;;;15.03;87.24;100629.97;5050720;28;20486;-45
2021/07/12 00:15:23;;;;;;;8.35;4.20;;;;;;;15.04;87.14;100634.34;5047579;28;20063;-45
2021/07/12 00:17:49;;;;;;;5.97;3.88;;;;;;;15.06;87.10;100634.75;5050050;28;20057;-52
2021/07/12 00:20:18;;;;;;;5.70;3.40;;;;;;;15.03;87.30;100629.97;5043318;28;20052;-44
2021/07/12 00:22:46;;;;;;;7.03;3.67;;;;;;;15.03;87.15;100640.28;5042038;28;20163;-45
2021/07/12 00:25:17;;;;;;;6.63;3.45;;;;;;;15.03;87.40;100638.31;5044544;28;20157;-46
2021/07/12 00:27:45;;;;;;;5.20;3.08;;;;;;;15.03;87.18;100631.94;5047096;28;20140;-44
2021/07/12 00:30:16;;;;;;;5.03;3.63;;;;;;;15.04;87.08;100634.34;5027492;28;20490;-48
2021/07/12 00:32:44;;;;;;;5.18;3.60;;;;;;;15.04;86.83;100639.91;5042603;28;20049;-48
2021/07/12 00:35:13;;;;;;;5.78;3.55;;;;;;;15.06;87.03;100636.75;5043616;28;20214;-45
2021/07/12 00:37:41;;;;;;;5.53;3.13;;;;;;;15.07;86.96;100639.16;5043041;28;20160;-46
2021/07/12 00:40:14;;;;;;;5.90;2.95;;;;;;;15.08;86.93;100634.38;5045280;28;20061;-46
2021/07/12 00:42:42;;;;;;;3.92;3.53;;;;;;;15.09;87.02;100636.00;5043162;28;20540;-46
2021/07/12 00:45:15;;;;;;;7.13;3.20;;;;;;;15.09;86.85;100636.00;5045852;28;20389;-47
2021/07/12 00:47:44;;;;;;;5.32;3.72;;;;;;;15.09;86.90;100641.59;5046096;28;20048;-47
2021/07/12 00:50:11;;;;;;;6.38;3.35;;;;;;;15.08;86.94;100635.19;5045843;28;20060;-45
2021/07/12 00:52:41;;;;;;;6.57;4.53;;;;;;;15.07;86.90;100632.78;5043841;28;20394;-44
2021/07/12 00:55:17;;;;;;;10.10;5.55;;;;;;;15.05;86.91;100630.38;5042248;28;20055;-45
2021/07/12 00:57:44;;;;;;;21.02;10.02;;;;;;;15.04;86.85;100634.34;5046982;28;20054;-45
2021/07/12 01:00:14;;;;;;;10.18;5.32;;;;;;;15.05;86.88;100635.13;5046916;28;20477;-44
2021/07/12 01:02:42;;;;;;;9.50;4.75;;;;;;;15.03;86.98;100629.97;5047607;28;20501;-49
2021/07/12 01:05:13;;;;;;;7.80;5.32;;;;;;;15.01;86.82;100625.94;5042697;28;20072;-46
2021/07/12 01:07:42;;;;;;;6.47;3.50;;;;;;;14.98;86.95;100624.72;5045389;28;20061;-45
2021/07/12 01:10:10;;;;;;;10.70;5.30;;;;;;;14.95;87.09;100633.00;5041074;28;20142;-45
2021/07/12 01:12:43;;;;;;;7.38;4.65;;;;;;;14.95;87.00;100636.63;5041833;28;20052;-46
2021/07/12 01:15:15;;;;;;;7.70;5.25;;;;;;;14.92;87.04;100637.38;5043976;28;20053;-47
2021/07/12 01:17:51;;;;;;;;;;;;;;;14.87;87.38;100626.53;5050585;28;20056;-44
2021/07/12 01:20:45;;;;;;;8.40;6.38;;;;;;;14.83;87.01;100633.22;5040587;28;19920;-50
2021/07/12 01:23:29;;;;;;;9.13;6.07;;;;;;;14.82;87.33;100632.44;5044674;28;22121;-53
2021/07/12 01:26:24;;;;;;;11.50;7.35;;;;;;;14.82;87.20;100632.44;5045748;28;20053;-45
2021/07/12 01:29:16;;;;;;;8.32;6.10;;;;;;;14.82;87.48;100635.22;5044698;28;20055;-45
2021/07/12 01:32:06;;;;;;;9.85;6.35;;;;;;;14.84;87.24;100635.66;5043178;28;20144;-45
2021/07/12 01:34:42;;;;;;;13.65;6.78;;;;;;;14.85;87.46;100630.88;5043773;28;20112;-53
2021/07/12 01:37:30;;;;;;;8.88;6.18;;;;;;;14.89;87.28;100631.72;5041366;28;20753;-46
2021/07/12 01:40:03;;;;;;;10.10;6.38;;;;;;;14.93;87.21;100633.38;5042378;28;20048;-48
2021/07/12 01:42:58;;;;;;;8.57;5.47;;;;;;;14.97;87.28;100633.44;5042498;28;21118;-44
2021/07/12 01:45:29;;;;;;;8.63;5.32;;;;;;;15.00;87.14;100630.72;5048566;28;20057;-47
2021/07/12 01:48:09;;;;;;;10.35;5.63;;;;;;;15.03;87.20;100632.75;5042151;28;20053;-45
2021/07/12 01:50:55;;;;;;;10.32;6.20;;;;;;;15.03;87.31;100632.75;5041041;28;20057;-45
2021/07/12 01:53:30;;;;;;;8.85;6.13;;;;;;;15.03;87.16;100623.56;5043660;28;20052;-46
2021/07/12 01:56:44;;;;;;;8.13;5.78;;;;;;;14.98;87.25;100624.72;5040672;28;20044;-45
2021/07/12 01:59:21;;;;;;;7.40;5.03;;;;;;;14.99;87.25;100629.09;5048005;28;20059;-48
2021/07/12 02:01:49;;;;;;;8.48;5.28;;;;;;;15.00;87.30;100619.56;5042310;28;20041;-48
2021/07/12 02:04:18;;;;;;;11.98;6.50;;;;;;;14.98;87.32;100621.94;5040779;28;20053;-46
2021/07/12 02:06:47;;;;;;;10.18;5.90;;;;;;;14.98;87.26;100624.72;5041859;28;20048;-43
2021/07/12 02:09:15;;;;;;;11.48;6.97;;;;;;;15.01;87.35;100628.72;5040217;28;20055;-44
2021/07/12 02:11:45;;;;;;;6.95;5.88;;;;;;;14.99;87.42;100622.69;5041735;28;20053;-47
2021/07/12 02:14:16;;;;;;;10.35;6.97;;;;;;;14.99;87.36;100619.91;5041939;28;20055;-46
2021/07/12 02:16:44;;;;;;;11.55;6.50;;;;;;;14.98;87.42;100619.13;5039657;28;20052;-46
2021/07/12 02:19:13;;;;;;;8.88;5.88;;;;;;;14.99;87.23;100620.72;5042146;28;20140;-52
2021/07/12 02:21:41;;;;;;;14.90;7.03;;;;;;;15.00;87.27;100616.75;5045009;28;20058;-47
2021/07/12 02:24:12;;;;;;;12.82;6.40;;;;;;;15.00;87.37;100622.34;5044972;28;20059;-45
2021/07/12 02:26:40;;;;;;;10.30;6.82;;;;;;;15.02;87.41;100624.75;5041863;28;20063;-48
2021/07/12 02:29:08;;;;;;;10.93;7.13;;;;;;;15.01;87.29;100628.72;5044189;28;20056;-44
2021/07/12 02:31:37;;;;;;;12.52;8.18;;;;;;;15.01;87.58;100629.50;5044162;28;20053;-47
2021/07/12 02:34:05;;;;;;;13.27;9.13;;;;;;;14.96;87.59;100624.25;5042620;28;20076;-45
2021/07/12 02:36:31;;;;;;;12.25;6.85;;;;;;;14.94;87.64;100632.22;5048321;28;20051;-48
2021/07/12 02:39:01;;;;;;;12.60;8.00;;;;;;;14.95;87.90;100625.47;5042002;28;20053;-46
2021/07/12 02:41:28;;;;;;;10.57;7.20;;;;;;;14.96;87.81;100631.81;5047719;28;20402;-52
2021/07/12 02:44:18;;;;;;;12.13;7.63;;;;;;;14.95;87.85;100625.47;5038191;28;20065;-46
2021/07/12 02:46:51;;;;;;;9.38;6.85;;;;;;;14.96;88.01;100629.03;5042365;28;20056;-45
2021/07/12 02:49:18;;;;;;;14.75;8.32;;;;;;;14.94;88.01;100634.19;5037722;28;20056;-55
2021/07/12 02:51:52;;;;;;;13.55;8.07;;;;;;;14.93;88.30;100643.75;5041912;28;20061;-44
2021/07/12 02:54:24;;;;;;;12.73;8.20;;;;;;;14.92;88.06;100642.13;5039374;28;20049;-47
2021/07/12 02:56:52;;;;;;;13.00;7.25;;;;;;;14.96;88.08;100642.97;5045192;28;20057;-46
2021/07/12 02:59:19;;;;;;;13.52;8.05;;;;;;;14.95;88.15;100635.81;5043182;28;20528;-45
2021/07/12 03:01:46;;;;;;;12.35;8.20;;;;;;;14.94;88.12;100635.00;5038665;28;20049;-44
2021/07/12 03:04:14;;;;;;;12.38;7.65;;;;;;;14.92;87.97;100642.94;5042203;28;20056;-45
2021/07/12 03:06:46;;;;;;;11.23;7.15;;;;;;;14.87;88.30;100639.66;5044423;28;20049;-44
2021/07/12 03:09:17;;;;;;;13.15;8.70;;;;;;;14.89;88.29;100634.50;5044595;28;20410;-43
2021/07/12 03:11:51;;;;;;;11.68;7.75;;;;;;;14.84;88.51;100630.09;5046516;28;20049;-45
2021/07/12 03:15:27;;;;;;;10.75;7.47;;;;;;;14.81;88.86;100641.97;5042529;28;20157;-45
2021/07/12 03:17:55;;;;;;;12.45;8.55;;;;;;;14.81;88.56;100633.63;4965187;28;20161;-47
2021/07/12 03:20:25;;;;;;;16.08;8.63;;;;;;;14.81;88.68;100630.03;4976607;28;20050;-50
2021/07/12 03:22:55;;;;;;;14.43;9.88;;;;;;;14.79;88.72;100633.19;5020744;28;20071;-50
2021/07/12 03:25:33;;;;;;;13.88;8.32;;;;;;;14.75;88.94;100626.75;5041283;28;20174;-45
2021/07/12 03:28:04;;;;;;;13.75;10.02;;;;;;;14.77;88.95;100632.78;5035365;28;20044;-45
2021/07/12 03:30:32;;;;;;;12.88;8.18;;;;;;;14.78;88.88;100631.56;5041917;28;20533;-46
2021/07/12 03:33:00;;;;;;;13.82;9.30;;;;;;;14.80;88.73;100628.44;5045574;28;20175;-45
2021/07/12 03:35:35;;;;;;;13.85;9.68;;;;;;;14.76;89.01;100628.38;5041987;28;20518;-47
2021/07/12 03:38:03;;;;;;;17.08;9.70;;;;;;;14.78;88.85;100627.97;5041034;28;20052;-44
2021/07/12 03:40:29;;;;;;;15.73;10.18;;;;;;;14.80;89.04;100623.63;5039689;28;20071;-45
2021/07/12 03:42:56;;;;;;;12.48;9.15;;;;;;;14.84;88.96;100627.28;5040831;28;20489;-43
2021/07/12 03:45:23;;;;;;;20.80;10.48;;;;;;;14.85;89.00;100628.88;5037187;28;20048;-44
2021/07/12 03:47:50;;;;;;;16.33;9.50;;;;;;;14.87;88.95;100629.34;5044058;28;20067;-46
2021/07/12 03:50:18;;;;;;;12.02;9.20;;;;;;;14.88;89.00;100624.56;5039362;28;20053;-50
2021/07/12 03:52:52;;;;;;;15.05;9.98;;;;;;;14.85;89.17;100626.09;5037414;28;20115;-45
2021/07/12 03:55:22;;;;;;;19.85;11.40;;;;;;;14.84;89.25;100630.09;5036313;28;20045;-44
2021/07/12 03:57:50;;;;;;;18.50;11.10;;;;;;;14.82;89.06;100629.66;5041667;28;20060;-45
2021/07/12 04:00:20;;;;;;;14.35;8.68;;;;;;;14.84;89.19;100626.47;5042547;28;20061;-46
2021/07/12 04:02:47;;;;;;;15.70;10.10;;;;;;;14.85;89.06;100630.88;5043764;28;20644;-45
2021/07/12 04:05:16;;;;;;;14.63;10.02;;;;;;;14.86;89.17;100622.13;5046283;28;20045;-44
2021/07/12 04:07:44;;;;;;;21.98;10.07;;;;;;;14.88;89.03;100630.91;5043029;28;20051;-45
2021/07/12 04:10:13;;;;;;;13.63;8.65;;;;;;;14.89;88.90;100631.72;5043636;28;20163;-45
2021/07/12 04:12:42;;;;;;;14.27;8.85;;;;;;;14.90;88.90;100633.34;5036614;28;20042;-45
2021/07/12 04:15:11;;;;;;;16.00;9.30;;;;;;;14.92;88.82;100636.56;5046089;28;20045;-44
2021/07/12 04:17:38;;;;;;;16.27;9.43;;;;;;;14.92;88.98;100631.78;5039853;28;20823;-49
2021/07/12 04:20:06;;;;;;;15.40;9.10;;;;;;;14.96;88.56;100640.19;5036629;28;20073;-48
2021/07/12 04:22:33;;;;;;;11.43;7.97;;;;;;;14.97;88.60;100639.00;5039952;28;20437;-52
2021/07/12 04:25:00;;;;;;;12.75;7.88;;;;;;;14.97;88.62;100634.25;5041583;28;20049;-44
2021/07/12 04:27:30;;;;;;;15.15;8.85;;;;;;;14.99;88.54;100643.03;5024815;28;20056;-47
2021/07/12 04:29:58;;;;;;;13.07;8.52;;;;;;;14.99;88.51;100637.44;5043414;28;20358;-45
2021/07/12 04:32:28;;;;;;;12.15;8.02;;;;;;;14.99;88.58;100643.03;5041783;28;21528;-44
2021/07/12 04:34:54;;;;;;;11.70;7.65;;;;;;;15.00;88.33;100649.41;5048959;28;20497;-46
2021/07/12 04:37:24;;;;;;;16.25;9.98;;;;;;;15.00;88.47;100644.66;5044142;28;20148;-51
2021/07/12 04:39:51;;;;;;;13.52;7.43;;;;;;;14.99;88.37;100645.81;5047612;28;20067;-47
2021/07/12 04:42:18;;;;;;;10.45;7.78;;;;;;;14.99;88.39;100648.59;5028435;28;20047;-45
2021/07/12 04:44:44;;;;;;;11.50;8.02;;;;;;;15.01;88.50;100651.81;5045960;28;20045;-45
2021/07/12 04:47:11;;;;;;;12.07;7.93;;;;;;;15.01;88.55;100651.81;5047385;28;20051;-48
2021/07/12 04:49:38;;;;;;;13.73;7.63;;;;;;;15.00;88.48;100649.41;5040514;28;20923;-45
2021/07/12 04:52:05;;;;;;;9.45;6.85;;;;;;;15.00;88.35;100655.00;5047564;28;20044;-46
2021/07/12 04:54:33;;;;;;;11.23;6.93;;;;;;;14.96;88.41;100646.56;5045626;28;20053;-44
2021/07/12 04:57:00;;;;;;;7.97;5.88;;;;;;;14.95;88.40;100647.75;5045988;28;20486;-44
2021/07/12 04:59:28;;;;;;;10.05;6.93;;;;;;;14.96;88.40;100652.13;5041607;28;20056;-45
2021/07/12 05:01:55;;;;;;;7.45;6.15;;;;;;;14.97;88.27;100645.41;5045016;28;20460;-45
2021/07/12 05:04:22;;;;;;;7.97;5.43;;;;;;;14.99;88.00;100656.16;5044022;28;20048;-47
2021/07/12 05:06:49;;;;;;;8.25;5.07;;;;;;;15.00;88.09;100657.78;5044745;28;20092;-44
2021/07/12 05:09:16;;;;;;;7.63;5.03;;;;;;;15.01;88.03;100649.03;5044275;28;20057;-49
2021/07/12 05:11:43;;;;;;;7.13;5.32;;;;;;;15.01;88.01;100654.59;5039838;28;20053;-45
2021/07/12 05:14:10;;;;;;;8.02;4.85;;;;;;;15.04;87.82;100658.63;5044615;28;20410;-50
2021/07/12 05:16:38;;;;;;;6.90;4.50;;;;;;;15.07;88.04;100657.88;5049704;28;20064;-44
2021/07/12 05:19:05;;;;;;;4.85;3.88;;;;;;;15.07;87.86;100667.03;5048347;28;20107;-51
2021/07/12 05:21:32;;;;;;;6.20;4.20;;;;;;;15.08;87.88;100656.69;5040843;28;20448;-49
2021/07/12 05:23:59;;;;;;;6.47;4.25;;;;;;;15.12;87.80;100658.34;5046121;28;20066;-44
2021/07/12 05:26:26;;;;;;;8.25;4.40;;;;;;;15.17;87.79;100658.00;5045127;28;20057;-47
2021/07/12 05:28:52;;;;;;;4.97;4.40;;;;;;;15.18;87.78;100656.84;5043875;28;20507;-43
2021/07/12 05:31:19;;;;;;;6.97;4.45;;;;;;;15.20;87.64;100660.03;5043427;28;20402;-48
2021/07/12 05:33:47;;;;;;;7.30;4.68;;;;;;;15.23;87.65;100664.06;5045219;28;20094;-44
2021/07/12 05:36:14;;;;;;;4.57;4.18;;;;;;;15.24;87.66;100660.09;5043821;28;20059;-45
2021/07/12 05:38:41;;;;;;;7.38;4.95;;;;;;;15.27;87.60;100661.31;5045224;28;20056;-42
2021/07/12 05:41:08;;;;;;;5.63;3.83;;;;;;;15.29;87.41;100672.91;5046208;28;20061;-52
2021/07/12 05:43:35;;;;;;;6.25;3.58;;;;;;;15.30;87.39;100663.38;5045428;28;20049;-48
2021/07/12 05:46:04;;;;;;;3.47;3.17;;;;;;;15.33;86.96;100659.81;5042726;28;20393;-43
2021/07/12 05:48:33;;;;;;;5.93;3.43;;;;;;;15.35;87.17;100660.25;5045968;28;20071;-45
2021/07/12 05:51:00;;;;;;;5.15;4.22;;;;;;;15.37;87.07;100657.88;5042291;28;20297;-42
2021/07/12 05:53:27;;;;;;;4.65;2.90;;;;;;;15.38;86.96;100665.84;5041096;28;20064;-43
2021/07/12 05:55:54;;;;;;;5.35;3.72;;;;;;;15.42;86.91;100668.69;5042130;28;20045;-42
2021/07/12 05:58:20;;;;;;;4.80;3.75;;;;;;;15.44;86.68;100669.09;5043731;28;20413;-53
2021/07/12 06:00:47;;;;;;;4.30;3.55;;;;;;;15.48;86.82;100676.38;5040959;28;20519;-43
2021/07/12 06:03:14;;;;;;;6.85;3.80;;;;;;;15.50;86.70;100662.03;5042508;28;20382;-46
2021/07/12 06:05:42;;;;;;;5.90;4.25;;;;;;;15.49;86.81;100666.81;5045057;28;20055;-48
2021/07/12 06:08:08;;;;;;;5.45;4.28;;;;;;;15.50;86.87;100674.00;5042049;28;20505;-46
2021/07/12 06:10:35;;;;;;;5.55;3.80;;;;;;;15.53;86.83;100676.03;5045613;28;20053;-45
2021/07/12 06:13:02;;;;;;;4.55;3.53;;;;;;;15.55;86.67;100681.25;5041657;28;20060;-43
2021/07/12 06:15:29;;;;;;;4.00;3.42;;;;;;;15.54;86.72;100680.44;5043623;28;20048;-52
2021/07/12 06:17:56;;;;;;;7.35;4.60;;;;;;;15.57;86.67;100679.66;5042111;28;20044;-48
2021/07/12 06:20:23;;;;;;;7.35;3.15;;;;;;;15.59;86.69;100680.13;5041554;28;20057;-44
2021/07/12 06:22:50;;;;;;;5.63;3.67;;;;;;;15.64;86.59;100685.34;5042587;28;20117;-46
2021/07/12 06:25:22;;;;;;;4.82;3.40;;;;;;;15.64;86.35;100690.94;5043528;28;20071;-43
2021/07/12 06:27:49;;;;;;;4.55;3.90;;;;;;;15.63;86.36;100688.50;5043685;28;20131;-49
2021/07/12 06:30:17;;;;;;;7.80;3.53;;;;;;;15.65;86.43;100686.94;5044272;28;20060;-46
2021/07/12 06:32:44;;;;;;;6.57;3.83;;;;;;;15.65;86.17;100691.72;5027986;28;20115;-48
2021/07/12 06:35:12;;;;;;;6.47;4.28;;;;;;;15.66;86.28;100690.53;5045304;28;20053;-49
2021/07/12 06:37:38;;;;;;;5.28;3.80;;;;;;;15.67;86.40;100694.97;5042509;28;20057;-50
2021/07/12 06:40:06;;;;;;;4.95;4.28;;;;;;;15.68;86.39;100691.78;5040920;28;20530;-44
2021/07/12 06:42:34;;;;;;;6.93;3.95;;;;;;;15.70;86.29;100694.19;5044786;28;20049;-43
2021/07/12 06:45:03;;;;;;;5.93;4.20;;;;;;;15.69;86.47;100693.38;5044649;28;20144;-46
2021/07/12 06:47:30;;;;;;;7.57;4.43;;;;;;;15.69;86.47;100698.16;5040234;28;20102;-52
2021/07/12 06:49:57;;;;;;;5.60;4.03;;;;;;;15.68;86.63;100710.50;5039495;28;20669;-51
2021/07/12 06:52:23;;;;;;;5.95;3.55;;;;;;;15.66;86.59;100710.09;5023392;28;20061;-43
2021/07/12 06:54:50;;;;;;;5.53;3.65;;;;;;;15.66;86.86;100704.50;5039737;28;20494;-43
2021/07/12 06:57:17;;;;;;;6.25;3.97;;;;;;;15.68;86.66;100707.72;5046356;28;20059;-43
2021/07/12 06:59:44;;;;;;;4.00;3.55;;;;;;;15.70;86.77;100710.94;5044275;28;20048;-44
2021/07/12 07:02:11;;;;;;;6.70;3.78;;;;;;;15.71;86.78;100707.75;5044653;28;20140;-44
2021/07/12 07:04:41;;;;;;;5.97;3.70;;;;;;;15.74;86.61;100709.78;5042937;28;20060;-44
2021/07/12 07:07:08;;;;;;;5.28;3.17;;;;;;;15.76;86.70;100709.41;5035557;28;20057;-43
2021/07/12 07:09:35;;;;;;;4.03;3.30;;;;;;;15.78;86.77;100709.81;5046581;28;20097;-44
2021/07/12 07:12:02;;;;;;;4.90;3.70;;;;;;;15.77;86.73;100713.81;5028640;28;20041;-43
2021/07/12 07:14:29;;;;;;;5.30;3.50;;;;;;;15.79;86.78;100717.00;5028902;28;20052;-46
2021/07/12 07:16:56;;;;;;;5.07;3.65;;;;;;;15.79;86.86;100719.81;5022367;28;20395;-49
2021/07/12 07:19:23;;;;;;;5.57;4.93;;;;;;;15.77;86.78;100725.78;5025752;28;20132;-44
2021/07/12 07:21:53;;;;;;;5.80;3.53;;;;;;;15.79;86.75;100731.78;5025429;28;20810;-44
2021/07/12 07:24:21;;;;;;;6.63;3.60;;;;;;;15.84;86.64;100733.44;5025147;28;20047;-47
2021/07/12 07:26:48;;;;;;;3.97;3.58;;;;;;;15.87;86.61;100724.28;5024276;28;20127;-50
2021/07/12 07:29:15;;;;;;;4.60;3.72;;;;;;;15.91;86.57;100727.13;5028864;28;20116;-46
2021/07/12 07:31:43;;;;;;;5.40;2.55;;;;;;;15.96;86.62;100732.38;5005335;28;20077;-50
2021/07/12 07:34:31;;;;;;;4.88;3.78;;;;;;;15.99;86.43;100729.59;5028272;28;20044;-44
2021/07/12 07:36:58;;;;;;;4.82;3.50;;;;;;;16.03;86.40;100727.66;5024897;28;20052;-45
2021/07/12 07:39:24;;;;;;;3.53;3.03;;;;;;;16.07;86.32;100724.91;5027234;28;20171;-47
2021/07/12 07:42:11;;;;;;;5.32;2.63;;;;;;;16.07;86.19;100725.69;5024919;28;20053;-47
2021/07/12 07:44:38;;;;;;;8.00;3.25;;;;;;;16.12;85.98;100727.38;5027351;28;20061;-42
2021/07/12 07:47:05;;;;;;;4.20;2.00;;;;;;;16.15;85.78;100732.97;5013791;28;20119;-46
2021/07/12 07:49:32;;;;;;;6.25;2.80;;;;;;;16.15;85.76;100726.59;5017570;28;20056;-46
2021/07/12 07:52:03;;;;;;;4.45;2.10;;;;;;;16.15;85.83;100727.38;5025007;28;20049;-44
2021/07/12 07:54:29;;;;;;;2.65;1.98;;;;;;;16.15;85.52;100732.97;5022488;28;20120;-46
2021/07/12 07:56:56;;;;;;;4.28;2.33;;;;;;;16.13;85.61;100735.34;5022751;28;20128;-44
2021/07/12 07:59:23;;;;;;;2.75;2.05;;;;;;;16.12;85.56;100735.75;5025051;28;20053;-44
2021/07/12 08:01:50;;;;;;;2.25;1.98;;;;;;;16.09;85.66;100734.53;5024135;28;20041;-45
2021/07/12 08:04:17;;;;;;;3.08;2.35;;;;;;;16.03;85.61;100741.63;5027502;28;20064;-50
2021/07/12 08:06:44;;;;;;;3.88;3.10;;;;;;;16.01;86.01;100738.44;5030759;28;20048;-44
2021/07/12 08:09:11;;;;;;;3.38;2.47;;;;;;;16.00;85.70;100736.81;5028455;28;20524;-44
2021/07/12 08:11:40;;;;;;;2.90;2.30;;;;;;;15.96;85.92;100740.75;5041858;28;20564;-46
2021/07/12 08:14:06;;;;;;;4.05;2.20;;;;;;;15.98;86.05;100739.19;5048970;28;20635;-46
2021/07/12 08:16:34;;;;;;;3.95;2.15;;;;;;;16.01;85.89;100744.00;5046967;28;20036;-42
2021/07/12 08:19:00;;;;;;;2.70;2.28;;;;;;;15.98;85.97;100744.78;5051072;28;20045;-44
2021/07/12 08:21:27;;;;;;;3.45;2.13;;;;;;;16.02;86.00;100750.41;5047474;28;20054;-43
2021/07/12 08:23:57;;;;;;;3.95;2.95;;;;;;;16.01;85.87;100749.59;5050390;28;20865;-43
2021/07/12 08:26:25;;;;;;;4.10;2.80;;;;;;;16.00;85.89;100747.97;5049610;28;20260;-45
2021/07/12 08:28:52;;;;;;;4.38;2.17;;;;;;;16.01;86.16;100748.78;5049120;28;20041;-43
2021/07/12 08:31:19;;;;;;;3.25;2.55;;;;;;;16.02;86.02;100756.00;5050301;28;20124;-44
2021/07/12 08:33:46;;;;;;;3.35;2.65;;;;;;;16.02;85.92;100751.19;5050117;28;20155;-43
2021/07/12 08:36:16;;;;;;;4.78;2.75;;;;;;;16.01;86.14;100755.19;5048213;28;20052;-43
2021/07/12 08:38:43;;;;;;;5.10;2.60;;;;;;;16.06;86.07;100754.03;5050429;28;20052;-45
2021/07/12 08:41:10;;;;;;;2.70;2.42;;;;;;;16.11;86.17;100754.50;5052258;28;20048;-50
2021/07/12 08:43:40;;;;;;;3.47;2.08;;;;;;;16.12;86.25;100753.31;5048541;28;20092;-44
2021/07/12 08:46:18;;;;;;;2.13;1.88;;;;;;;16.16;86.20;100762.53;5048355;28;20406;-43
2021/07/12 08:48:45;;;;;;;2.88;1.73;;;;;;;16.27;86.27;100763.44;5049259;28;20049;-48
2021/07/12 08:51:13;;;;;;;2.72;1.80;;;;;;;16.36;85.90;100761.13;5051450;28;20098;-45
2021/07/12 08:53:40;;;;;;;3.70;2.00;;;;;;;16.47;85.85;100771.63;5049298;28;20049;-43
2021/07/12 08:56:07;;;;;;;7.88;2.10;;;;;;;16.54;85.79;100768.94;5047745;28;20060;-49
2021/07/12 08:58:34;;;;;;;4.68;2.00;;;;;;;16.59;85.53;100768.56;5045765;28;20127;-42
2021/07/12 09:01:06;;;;;;;3.70;3.25;;;;;;;16.68;85.67;100771.88;5049609;28;20106;-48
2021/07/12 09:03:38;;;;;;;3.70;2.85;;;;;;;16.75;85.47;100777.50;5049873;28;20072;-42
2021/07/12 09:06:09;;;;;;;2.85;2.00;;;;;;;16.82;85.32;100771.97;5046703;28;20049;-42
2021/07/12 09:08:58;;;;;;;3.03;2.42;;;;;;;16.88;85.10;100770.44;5047672;28;20057;-42
2021/07/12 09:11:43;;;;;;;4.43;2.15;;;;;;;16.97;85.18;100780.09;5048426;28;20056;-43
2021/07/12 09:14:12;;;;;;;2.63;1.88;;;;;;;16.99;84.86;100772.13;5047174;28;20098;-42
2021/07/12 09:16:51;;;;;;;2.25;1.98;;;;;;;17.00;84.37;100772.91;5046778;28;20048;-44
2021/07/12 09:19:35;;;;;;;2.38;1.65;;;;;;;17.02;84.42;100776.16;5049655;28;20063;-43
2021/07/12 09:22:04;;;;;;;2.22;1.95;;;;;;;17.09;84.15;100779.00;5047098;28;20049;-43
2021/07/12 09:24:31;;;;;;;2.55;1.88;;;;;;;17.12;83.90;100775.41;5045948;28;20063;-48
2021/07/12 09:27:01;;;;;;;3.03;1.92;;;;;;;17.15;83.55;100780.25;5048528;28;20143;-47
2021/07/12 09:29:38;;;;;;;3.55;1.73;;;;;;;17.15;83.50;100774.66;5049772;28;20319;-44
2021/07/12 09:32:08;;;;;;;2.10;1.95;;;;;;;17.21;83.41;100770.28;5047560;28;20053;-48
2021/07/12 09:34:36;;;;;;;2.47;1.67;;;;;;;17.26;83.42;100763.53;5046991;28;20048;-43
2021/07/12 09:37:04;;;;;;;2.85;1.63;;;;;;;17.27;83.10;100771.50;5046900;28;20063;-44
2021/07/12 09:39:37;;;;;;;3.78;2.25;;;;;;;17.23;82.77;100765.09;5048346;28;20053;-45
2021/07/12 09:42:13;;;;;;;3.17;2.65;;;;;;;17.26;82.97;100774.72;5047356;28;20488;-44
2021/07/12 09:44:42;;;;;;;3.30;2.42;;;;;;;17.33;82.85;100775.56;5046112;28;20927;-50
2021/07/12 09:47:22;;;;;;;3.53;2.28;;;;;;;17.41;82.61;100777.22;5045965;28;20053;-51
2021/07/12 09:49:50;;;;;;;3.53;2.33;;;;;;;17.45;82.22;100780.00;5046014;28;20063;-44
2021/07/12 09:52:20;;;;;;;4.75;2.53;;;;;;;17.52;82.12;100769.69;5047482;28;20589;-43
2021/07/12 09:54:48;;;;;;;6.00;3.60;;;;;;;17.54;81.94;100786.91;5047521;28;20061;-52
2021/07/12 09:57:21;;;;;;;5.60;2.60;;;;;;;17.57;81.88;100776.94;5049418;28;20060;-45
2021/07/12 10:00:00;;;;;;;5.18;3.00;;;;;;;17.60;81.44;100779.75;5046835;28;20790;-44
2021/07/12 10:02:33;;;;;;;7.03;3.83;;;;;;;17.64;81.44;100785.34;5045817;28;20045;-43
2021/07/12 10:05:10;;;;;;;3.30;3.00;;;;;;;17.68;81.46;100779.78;5048557;28;20067;-44
2021/07/12 10:07:37;;;;;;;3.38;3.08;;;;;;;17.67;81.36;100780.97;5044048;28;20084;-43
2021/07/12 10:10:13;;;;;;;3.35;3.00;;;;;;;17.64;81.18;100786.16;5048623;28;20134;-47
2021/07/12 10:12:44;;;;;;;3.50;2.90;;;;;;;17.60;80.91;100785.38;5049341;28;20052;-44
2021/07/12 10:15:13;;;;;;;5.32;3.08;;;;;;;17.56;80.96;100787.31;5046790;28;20127;-44
2021/07/12 10:17:41;;;;;;;4.35;3.70;;;;;;;17.57;80.86;100791.75;5047841;28;20498;-43
2021/07/12 10:20:09;;;;;;;4.88;3.88;;;;;;;17.53;80.79;100790.09;5046273;28;20051;-44
2021/07/12 10:22:39;;;;;;;9.27;3.80;;;;;;;17.52;80.86;100782.88;5045875;28;20130;-45
2021/07/12 10:25:14;;;;;;;4.65;3.58;;;;;;;17.53;80.57;100790.91;5048029;28;20080;-47
2021/07/12 10:28:03;;;;;;;5.05;4.45;;;;;;;17.50;80.11;100786.06;5045904;28;20060;-44
2021/07/12 10:30:43;;;;;;;6.75;4.60;;;;;;;17.47;80.53;100786.06;5046576;28;20053;-48
2021/07/12 10:33:12;;;;;;;4.68;4.03;;;;;;;17.46;80.62;100795.63;5047671;28;21455;-44
2021/07/12 10:35:38;;;;;;;7.45;4.50;;;;;;;17.49;80.38;100790.06;5046424;28;20150;-53
2021/07/12 10:38:06;;;;;;;5.03;4.15;;;;;;;17.53;80.30;100788.09;5048109;28;20056;-47
2021/07/12 10:40:49;;;;;;;6.13;4.55;;;;;;;17.61;80.30;100781.34;5046460;28;20561;-44
2021/07/12 10:43:53;;;;;;;4.32;3.92;;;;;;;17.74;79.97;100789.44;5048839;28;20058;-44
2021/07/12 10:46:37;;;;;;;3.75;3.33;;;;;;;17.81;79.62;100786.66;5045689;28;20049;-43
2021/07/12 10:49:33;;;;;;;4.68;3.60;;;;;;;17.79;79.83;100789.06;5046359;28;20063;-44
2021/07/12 10:51:59;;;;;;;4.55;4.07;;;;;;;17.79;79.91;100797.44;5044249;28;20052;-45
2021/07/12 10:55:06;;;;;;;6.40;3.42;;;;;;;17.75;79.72;100796.63;5045647;28;20052;-43
2021/07/12 10:57:36;;;;;;;4.95;3.80;;;;;;;17.67;79.83;100798.59;5045916;28;20052;-48
2021/07/12 11:00:09;;;;;;;5.55;4.95;;;;;;;17.64;79.88;100797.38;5046081;28;20048;-50
2021/07/12 11:02:41;;;;;;;6.35;3.42;;;;;;;17.72;79.49;100791.78;5022601;28;20922;-48
2021/07/12 11:05:17;;;;;;;3.67;3.28;;;;;;;17.82;79.19;100799.47;5046662;28;20052;-42
2021/07/12 11:07:53;;;;;;;3.50;3.20;;;;;;;17.93;79.28;100798.31;5044971;28;20058;-48
2021/07/12 11:10:25;;;;;;;7.18;3.92;;;;;;;17.96;78.85;100793.91;5044498;28;20056;-45
2021/07/12 11:13:00;;;;;;;4.95;3.08;;;;;;;17.94;78.02;100807.50;5047894;28;20080;-43
2021/07/12 11:15:30;;;;;;;4.53;3.28;;;;;;;17.89;78.42;100803.09;5045484;28;20086;-44
2021/07/12 11:18:07;;;;;;;6.53;3.80;;;;;;;17.88;78.16;100797.88;5045471;28;20801;-44
2021/07/12 11:20:42;;;;;;;3.38;3.08;;;;;;;17.87;78.02;100799.09;5027045;28;20092;-44
2021/07/12 11:23:29;;;;;;;3.45;2.88;;;;;;;17.89;78.04;100791.91;5043905;28;20317;-51
2021/07/12 11:25:56;;;;;;;5.32;2.88;;;;;;;17.92;77.72;100790.31;5044832;28;20067;-43
2021/07/12 11:28:22;;;;;;;4.28;3.60;;;;;;;17.98;77.76;100792.31;5045573;28;20839;-43
2021/07/12 11:30:49;;;;;;;5.93;3.35;;;;;;;18.06;77.76;100796.75;5028515;28;20155;-43
2021/07/12 11:33:29;;;;;;;4.22;3.33;;;;;;;18.21;77.67;100792.78;5045064;28;20060;-45
2021/07/12 11:35:59;;;;;;;4.25;2.72;;;;;;;18.37;77.68;100789.66;5043905;28;20091;-45
2021/07/12 11:38:26;;;;;;;5.63;3.35;;;;;;;18.56;77.62;100789.31;5030889;28;20052;-46